sensor_id;sensor_type;location;lat;lon;timestamp;pressure;altitude;pressure_sealevel;temperature;humidity
34034;BME280;63481;52.588;22.472;2024-02-21T00:03:52;100483.63;;;4.67;100.00
34034;BME280;63481;52.588;22.472;2024-02-21T00:08:53;100486.13;;;4.45;100.00
34034;BME280;63481;52.588;22.472;2024-02-21T00:13:55;100491.58;;;4.27;100.00
34034;BME280;63481;52.588;22.472;2024-02-21T00:18:57;100496.67;;;4.29;100.00
34034;BME280;63481;52.588;22.472;2024-02-21T00:23:59;100490.51;;;4.22;100.00
34034;BME280;63481;52.588;22.472;2024-02-21T00:29:00;100486.73;;;4.09;100.00
34034;BME280;63481;52.588;22.472;2024-02-21T00:34:02;100492.88;;;4.14;100.00
34034;BME280;63481;52.588;22.472;2024-02-21T00:39:04;100495.57;;;4.28;100.00
34034;BME280;63481;52.588;22.472;2024-02-21T00:44:06;100483.69;;;4.37;100.00
34034;BME280;63481;52.588;22.472;2024-02-21T00:49:08;100480.64;;;4.41;100.00
34034;BME280;63481;52.588;22.472;2024-02-21T00:54:10;100479.68;;;4.41;100.00
34034;BME280;63481;52.588;22.472;2024-02-21T00:59:11;100482.86;;;4.43;100.00
34034;BME280;63481;52.588;22.472;2024-02-21T01:04:13;100484.04;;;4.40;100.00
34034;BME280;63481;52.588;22.472;2024-02-21T01:09:15;100477.98;;;4.39;100.00
34034;BME280;63481;52.588;22.472;2024-02-21T01:14:17;100474.38;;;4.35;100.00
34034;BME280;63481;52.588;22.472;2024-02-21T01:19:19;100474.02;;;4.33;100.00
34034;BME280;63481;52.588;22.472;2024-02-21T01:24:21;100475.25;;;4.31;100.00
34034;BME280;63481;52.588;22.472;2024-02-21T01:29:23;100472.02;;;4.27;100.00
34034;BME280;63481;52.588;22.472;2024-02-21T01:34:25;100471.03;;;4.27;100.00
34034;BME280;63481;52.588;22.472;2024-02-21T01:39:26;100467.02;;;4.25;100.00
34034;BME280;63481;52.588;22.472;2024-02-21T01:44:28;100470.71;;;4.20;100.00
34034;BME280;63481;52.588;22.472;2024-02-21T01:49:30;100471.88;;;4.18;100.00
34034;BME280;63481;52.588;22.472;2024-02-21T01:54:33;100472.66;;;4.14;100.00
34034;BME280;63481;52.588;22.472;2024-02-21T01:59:34;100472.80;;;4.13;100.00
34034;BME280;63481;52.588;22.472;2024-02-21T02:04:38;100469.59;;;4.10;100.00
34034;BME280;63481;52.588;22.472;2024-02-21T02:09:41;100468.89;;;4.02;100.00
34034;BME280;63481;52.588;22.472;2024-02-21T02:14:43;100470.26;;;3.99;100.00
34034;BME280;63481;52.588;22.472;2024-02-21T02:19:45;100465.83;;;3.91;100.00
34034;BME280;63481;52.588;22.472;2024-02-21T02:24:47;100463.48;;;3.83;100.00
34034;BME280;63481;52.588;22.472;2024-02-21T02:29:49;100465.23;;;3.78;100.00
34034;BME280;63481;52.588;22.472;2024-02-21T02:34:50;100468.12;;;3.79;100.00
34034;BME280;63481;52.588;22.472;2024-02-21T02:39:52;100469.15;;;3.74;100.00
34034;BME280;63481;52.588;22.472;2024-02-21T02:44:54;100468.85;;;3.67;100.00
34034;BME280;63481;52.588;22.472;2024-02-21T02:49:56;100468.40;;;3.68;100.00
34034;BME280;63481;52.588;22.472;2024-02-21T02:54:58;100467.54;;;3.64;100.00
34034;BME280;63481;52.588;22.472;2024-02-21T02:59:59;100475.05;;;3.63;100.00
34034;BME280;63481;52.588;22.472;2024-02-21T03:05:11;100474.31;;;3.59;100.00
34034;BME280;63481;52.588;22.472;2024-02-21T03:10:14;100473.84;;;3.52;100.00
34034;BME280;63481;52.588;22.472;2024-02-21T03:15:17;100477.54;;;3.48;100.00
34034;BME280;63481;52.588;22.472;2024-02-21T03:20:19;100475.69;;;3.48;100.00
34034;BME280;63481;52.588;22.472;2024-02-21T03:25:21;100473.98;;;3.45;100.00
34034;BME280;63481;52.588;22.472;2024-02-21T03:30:23;100476.31;;;3.44;100.00
34034;BME280;63481;52.588;22.472;2024-02-21T03:35:24;100476.79;;;3.42;100.00
34034;BME280;63481;52.588;22.472;2024-02-21T03:40:28;100470.20;;;3.45;100.00
34034;BME280;63481;52.588;22.472;2024-02-21T03:45:30;100469.17;;;3.48;100.00
34034;BME280;63481;52.588;22.472;2024-02-21T03:50:32;100473.55;;;3.41;100.00
34034;BME280;63481;52.588;22.472;2024-02-21T03:55:33;100474.17;;;3.44;100.00
34034;BME280;63481;52.588;22.472;2024-02-21T04:00:35;100476.22;;;3.43;100.00
34034;BME280;63481;52.588;22.472;2024-02-21T04:05:37;100478.67;;;3.45;100.00
34034;BME280;63481;52.588;22.472;2024-02-21T04:10:39;100480.36;;;3.45;100.00
34034;BME280;63481;52.588;22.472;2024-02-21T04:15:41;100478.23;;;3.44;100.00
34034;BME280;63481;52.588;22.472;2024-02-21T04:20:42;100477.08;;;3.43;100.00
34034;BME280;63481;52.588;22.472;2024-02-21T04:25:44;100481.06;;;3.43;100.00
34034;BME280;63481;52.588;22.472;2024-02-21T04:30:46;100477.23;;;3.43;100.00
34034;BME280;63481;52.588;22.472;2024-02-21T04:35:48;100477.23;;;3.40;100.00
34034;BME280;63481;52.588;22.472;2024-02-21T04:40:50;100478.35;;;3.46;100.00
34034;BME280;63481;52.588;22.472;2024-02-21T04:45:51;100481.55;;;3.42;100.00
34034;BME280;63481;52.588;22.472;2024-02-21T04:50:55;100475.95;;;3.40;100.00
34034;BME280;63481;52.588;22.472;2024-02-21T04:55:56;100477.72;;;3.45;100.00
34034;BME280;63481;52.588;22.472;2024-02-21T05:00:58;100480.02;;;3.42;100.00
34034;BME280;63481;52.588;22.472;2024-02-21T05:06:00;100479.01;;;3.39;100.00
34034;BME280;63481;52.588;22.472;2024-02-21T05:11:02;100475.77;;;3.37;100.00
34034;BME280;63481;52.588;22.472;2024-02-21T05:16:05;100477.44;;;3.33;100.00
34034;BME280;63481;52.588;22.472;2024-02-21T05:21:07;100474.70;;;3.25;100.00
34034;BME280;63481;52.588;22.472;2024-02-21T05:26:09;100473.96;;;3.17;100.00
34034;BME280;63481;52.588;22.472;2024-02-21T05:31:11;100476.28;;;3.23;100.00
34034;BME280;63481;52.588;22.472;2024-02-21T05:36:13;100471.20;;;3.15;100.00
34034;BME280;63481;52.588;22.472;2024-02-21T05:41:15;100470.11;;;3.03;100.00
34034;BME280;63481;52.588;22.472;2024-02-21T05:46:19;100475.83;;;3.00;100.00
34034;BME280;63481;52.588;22.472;2024-02-21T05:51:21;100478.64;;;3.05;100.00
34034;BME280;63481;52.588;22.472;2024-02-21T05:56:23;100479.61;;;3.18;100.00
34034;BME280;63481;52.588;22.472;2024-02-21T06:01:24;100476.56;;;3.22;100.00
34034;BME280;63481;52.588;22.472;2024-02-21T06:06:26;100475.77;;;3.27;100.00
34034;BME280;63481;52.588;22.472;2024-02-21T06:11:28;100475.82;;;3.33;100.00
34034;BME280;63481;52.588;22.472;2024-02-21T06:16:30;100477.14;;;3.34;100.00
34034;BME280;63481;52.588;22.472;2024-02-21T06:21:32;100475.81;;;3.36;100.00
34034;BME280;63481;52.588;22.472;2024-02-21T06:26:34;100475.30;;;3.30;100.00
34034;BME280;63481;52.588;22.472;2024-02-21T06:31:36;100469.64;;;3.35;100.00
34034;BME280;63481;52.588;22.472;2024-02-21T06:36:37;100474.91;;;3.50;100.00
34034;BME280;63481;52.588;22.472;2024-02-21T06:41:39;100482.17;;;3.53;100.00
34034;BME280;63481;52.588;22.472;2024-02-21T06:46:42;100486.46;;;3.58;100.00
34034;BME280;63481;52.588;22.472;2024-02-21T06:51:43;100481.64;;;3.62;100.00
34034;BME280;63481;52.588;22.472;2024-02-21T06:56:45;100481.33;;;3.64;100.00
34034;BME280;63481;52.588;22.472;2024-02-21T07:01:48;100479.87;;;3.64;100.00
34034;BME280;63481;52.588;22.472;2024-02-21T07:06:50;100476.74;;;3.64;100.00
34034;BME280;63481;52.588;22.472;2024-02-21T07:11:52;100476.77;;;3.65;100.00
34034;BME280;63481;52.588;22.472;2024-02-21T07:16:54;100474.57;;;3.76;100.00
34034;BME280;63481;52.588;22.472;2024-02-21T07:21:56;100472.57;;;3.80;100.00
34034;BME280;63481;52.588;22.472;2024-02-21T07:26:58;100468.46;;;3.87;100.00
34034;BME280;63481;52.588;22.472;2024-02-21T07:32:06;100467.73;;;4.07;100.00
34034;BME280;63481;52.588;22.472;2024-02-21T07:37:07;100469.17;;;4.17;100.00
34034;BME280;63481;52.588;22.472;2024-02-21T07:42:09;100470.53;;;4.28;100.00
34034;BME280;63481;52.588;22.472;2024-02-21T07:47:11;100465.06;;;4.31;100.00
34034;BME280;63481;52.588;22.472;2024-02-21T07:52:12;100460.11;;;4.43;100.00
34034;BME280;63481;52.588;22.472;2024-02-21T07:57:14;100451.23;;;4.45;100.00
34034;BME280;63481;52.588;22.472;2024-02-21T08:02:16;100439.02;;;4.62;100.00
34034;BME280;63481;52.588;22.472;2024-02-21T08:07:18;100440.77;;;5.55;100.00
34034;BME280;63481;52.588;22.472;2024-02-21T08:12:20;100436.92;;;5.62;100.00
34034;BME280;63481;52.588;22.472;2024-02-21T08:17:22;100427.02;;;5.46;100.00
34034;BME280;63481;52.588;22.472;2024-02-21T08:22:23;100422.05;;;5.60;100.00
34034;BME280;63481;52.588;22.472;2024-02-21T08:27:25;100419.96;;;5.54;100.00
34034;BME280;63481;52.588;22.472;2024-02-21T08:32:28;100417.21;;;5.20;100.00
34034;BME280;63481;52.588;22.472;2024-02-21T08:37:30;100417.48;;;5.19;100.00
34034;BME280;63481;52.588;22.472;2024-02-21T08:42:32;100410.01;;;5.25;100.00
34034;BME280;63481;52.588;22.472;2024-02-21T08:47:34;100406.61;;;5.35;100.00
34034;BME280;63481;52.588;22.472;2024-02-21T08:52:37;100399.91;;;5.58;100.00
34034;BME280;63481;52.588;22.472;2024-02-21T08:57:39;100394.58;;;5.60;100.00
34034;BME280;63481;52.588;22.472;2024-02-21T09:02:41;100390.85;;;5.45;100.00
34034;BME280;63481;52.588;22.472;2024-02-21T09:07:44;100392.77;;;5.42;100.00
34034;BME280;63481;52.588;22.472;2024-02-21T09:12:46;100392.02;;;5.47;100.00
34034;BME280;63481;52.588;22.472;2024-02-21T09:17:49;100388.72;;;5.55;100.00
34034;BME280;63481;52.588;22.472;2024-02-21T09:22:51;100387.90;;;5.69;100.00
34034;BME280;63481;52.588;22.472;2024-02-21T09:27:54;100388.86;;;5.67;100.00
34034;BME280;63481;52.588;22.472;2024-02-21T09:32:56;100382.94;;;5.76;100.00
34034;BME280;63481;52.588;22.472;2024-02-21T09:38:01;100378.11;;;5.75;100.00
34034;BME280;63481;52.588;22.472;2024-02-21T09:43:04;100373.12;;;5.83;100.00
34034;BME280;63481;52.588;22.472;2024-02-21T09:53:43;100368.98;;;6.01;100.00
34034;BME280;63481;52.588;22.472;2024-02-21T09:58:47;100364.06;;;6.10;100.00
34034;BME280;63481;52.588;22.472;2024-02-21T10:03:49;100360.73;;;6.20;100.00
34034;BME280;63481;52.588;22.472;2024-02-21T10:08:52;100352.73;;;6.15;100.00
34034;BME280;63481;52.588;22.472;2024-02-21T10:14:07;100351.48;;;6.23;100.00
34034;BME280;63481;52.588;22.472;2024-02-21T10:19:19;100342.98;;;6.29;100.00
34034;BME280;63481;52.588;22.472;2024-02-21T10:24:26;100338.61;;;6.74;100.00
34034;BME280;63481;52.588;22.472;2024-02-21T10:29:32;100326.83;;;6.97;100.00
34034;BME280;63481;52.588;22.472;2024-02-21T10:34:35;100326.21;;;7.17;100.00
34034;BME280;63481;52.588;22.472;2024-02-21T10:39:38;100318.22;;;7.26;100.00
34034;BME280;63481;52.588;22.472;2024-02-21T10:44:41;100314.94;;;7.31;100.00
34034;BME280;63481;52.588;22.472;2024-02-21T10:49:44;100303.94;;;7.36;100.00
34034;BME280;63481;52.588;22.472;2024-02-21T10:55:38;100289.97;;;7.64;100.00
34034;BME280;63481;52.588;22.472;2024-02-21T11:00:29;100290.29;;;7.87;100.00
34034;BME280;63481;52.588;22.472;2024-02-21T11:05:32;100285.20;;;7.57;100.00
34034;BME280;63481;52.588;22.472;2024-02-21T11:10:36;100283.13;;;7.20;100.00
34034;BME280;63481;52.588;22.472;2024-02-21T11:15:38;100272.53;;;6.94;100.00
34034;BME280;63481;52.588;22.472;2024-02-21T11:20:40;100265.35;;;6.91;100.00
34034;BME280;63481;52.588;22.472;2024-02-21T11:25:41;100257.30;;;6.96;100.00
34034;BME280;63481;52.588;22.472;2024-02-21T11:30:43;100247.76;;;6.93;100.00
34034;BME280;63481;52.588;22.472;2024-02-21T11:35:45;100241.00;;;6.89;100.00
34034;BME280;63481;52.588;22.472;2024-02-21T11:40:47;100238.27;;;6.91;100.00
34034;BME280;63481;52.588;22.472;2024-02-21T11:45:49;100233.89;;;6.99;100.00
34034;BME280;63481;52.588;22.472;2024-02-21T11:50:55;100223.93;;;7.01;100.00
34034;BME280;63481;52.588;22.472;2024-02-21T11:55:57;100221.77;;;7.18;100.00
34034;BME280;63481;52.588;22.472;2024-02-21T12:00:59;100213.45;;;7.38;100.00
34034;BME280;63481;52.588;22.472;2024-02-21T12:06:01;100203.12;;;7.44;100.00
34034;BME280;63481;52.588;22.472;2024-02-21T12:11:15;100194.08;;;7.46;100.00
34034;BME280;63481;52.588;22.472;2024-02-21T12:16:17;100194.02;;;7.18;100.00
34034;BME280;63481;52.588;22.472;2024-02-21T12:21:23;100188.91;;;7.06;100.00
34034;BME280;63481;52.588;22.472;2024-02-21T12:26:25;100187.41;;;6.98;100.00
34034;BME280;63481;52.588;22.472;2024-02-21T12:31:28;100178.71;;;7.03;100.00
34034;BME280;63481;52.588;22.472;2024-02-21T12:36:33;100169.67;;;6.94;100.00
34034;BME280;63481;52.588;22.472;2024-02-21T12:41:35;100171.77;;;6.84;100.00
34034;BME280;63481;52.588;22.472;2024-02-21T12:46:39;100168.14;;;6.85;100.00
34034;BME280;63481;52.588;22.472;2024-02-21T12:51:41;100156.29;;;6.85;100.00
34034;BME280;63481;52.588;22.472;2024-02-21T12:56:43;100158.07;;;6.81;100.00
34034;BME280;63481;52.588;22.472;2024-02-21T13:01:45;100154.05;;;6.76;100.00
34034;BME280;63481;52.588;22.472;2024-02-21T13:06:47;100152.08;;;6.75;100.00
34034;BME280;63481;52.588;22.472;2024-02-21T13:11:49;100145.68;;;6.69;100.00
34034;BME280;63481;52.588;22.472;2024-02-21T13:16:52;100143.63;;;6.64;100.00
34034;BME280;63481;52.588;22.472;2024-02-21T13:21:54;100138.05;;;6.56;100.00
34034;BME280;63481;52.588;22.472;2024-02-21T13:26:56;100133.00;;;6.50;100.00
34034;BME280;63481;52.588;22.472;2024-02-21T13:31:58;100133.40;;;6.51;100.00
34034;BME280;63481;52.588;22.472;2024-02-21T13:37:00;100129.34;;;6.54;100.00
34034;BME280;63481;52.588;22.472;2024-02-21T13:42:02;100129.98;;;6.44;100.00
34034;BME280;63481;52.588;22.472;2024-02-21T13:47:07;100121.08;;;6.34;100.00
34034;BME280;63481;52.588;22.472;2024-02-21T13:52:09;100122.31;;;6.30;100.00
34034;BME280;63481;52.588;22.472;2024-02-21T13:57:12;100121.88;;;6.28;100.00
34034;BME280;63481;52.588;22.472;2024-02-21T14:02:13;100115.85;;;6.22;100.00
34034;BME280;63481;52.588;22.472;2024-02-21T14:07:15;100102.84;;;6.23;100.00
34034;BME280;63481;52.588;22.472;2024-02-21T14:12:18;100098.06;;;6.17;100.00
34034;BME280;63481;52.588;22.472;2024-02-21T14:17:22;100089.45;;;6.09;100.00
34034;BME280;63481;52.588;22.472;2024-02-21T14:22:23;100083.33;;;6.08;100.00
34034;BME280;63481;52.588;22.472;2024-02-21T14:27:25;100075.67;;;6.03;100.00
34034;BME280;63481;52.588;22.472;2024-02-21T14:32:27;100073.55;;;6.01;100.00
34034;BME280;63481;52.588;22.472;2024-02-21T14:37:29;100073.98;;;5.99;100.00
34034;BME280;63481;52.588;22.472;2024-02-21T14:42:31;100066.95;;;6.02;100.00
34034;BME280;63481;52.588;22.472;2024-02-21T14:47:33;100060.13;;;6.03;100.00
34034;BME280;63481;52.588;22.472;2024-02-21T14:52:34;100057.61;;;6.00;100.00
34034;BME280;63481;52.588;22.472;2024-02-21T14:57:37;100052.94;;;6.01;100.00
34034;BME280;63481;52.588;22.472;2024-02-21T15:02:39;100040.98;;;6.01;100.00
34034;BME280;63481;52.588;22.472;2024-02-21T15:07:42;100035.77;;;6.00;100.00
34034;BME280;63481;52.588;22.472;2024-02-21T15:12:47;100036.05;;;6.05;100.00
34034;BME280;63481;52.588;22.472;2024-02-21T15:17:49;100031.61;;;6.11;100.00
34034;BME280;63481;52.588;22.472;2024-02-21T15:22:52;100034.88;;;6.03;100.00
34034;BME280;63481;52.588;22.472;2024-02-21T15:27:53;100033.33;;;5.98;100.00
34034;BME280;63481;52.588;22.472;2024-02-21T15:32:55;100033.23;;;5.95;100.00
34034;BME280;63481;52.588;22.472;2024-02-21T15:37:59;100029.22;;;5.91;100.00
34034;BME280;63481;52.588;22.472;2024-02-21T15:43:02;100032.16;;;5.97;100.00
34034;BME280;63481;52.588;22.472;2024-02-21T15:48:04;100018.64;;;5.95;100.00
34034;BME280;63481;52.588;22.472;2024-02-21T15:53:06;100009.20;;;5.93;100.00
34034;BME280;63481;52.588;22.472;2024-02-21T15:58:08;100005.51;;;5.90;100.00
34034;BME280;63481;52.588;22.472;2024-02-21T16:03:10;100002.46;;;5.86;100.00
34034;BME280;63481;52.588;22.472;2024-02-21T16:08:11;99998.76;;;5.86;100.00
34034;BME280;63481;52.588;22.472;2024-02-21T16:13:14;99996.98;;;5.81;100.00
34034;BME280;63481;52.588;22.472;2024-02-21T16:18:15;99994.31;;;5.83;100.00
34034;BME280;63481;52.588;22.472;2024-02-21T16:23:21;99993.27;;;5.80;100.00
34034;BME280;63481;52.588;22.472;2024-02-21T16:28:24;99993.06;;;5.84;100.00
34034;BME280;63481;52.588;22.472;2024-02-21T16:33:26;99988.48;;;5.83;100.00
34034;BME280;63481;52.588;22.472;2024-02-21T16:38:28;99989.04;;;5.80;100.00
34034;BME280;63481;52.588;22.472;2024-02-21T16:43:30;99992.03;;;5.79;100.00
34034;BME280;63481;52.588;22.472;2024-02-21T16:48:31;99992.60;;;5.81;100.00
34034;BME280;63481;52.588;22.472;2024-02-21T16:53:33;99990.40;;;5.81;100.00
34034;BME280;63481;52.588;22.472;2024-02-21T16:58:35;99988.41;;;5.80;100.00
34034;BME280;63481;52.588;22.472;2024-02-21T17:03:40;99995.33;;;5.78;100.00
34034;BME280;63481;52.588;22.472;2024-02-21T17:08:42;99995.45;;;5.78;100.00
34034;BME280;63481;52.588;22.472;2024-02-21T17:13:44;100000.69;;;5.80;100.00
34034;BME280;63481;52.588;22.472;2024-02-21T17:18:45;99997.91;;;5.83;100.00
34034;BME280;63481;52.588;22.472;2024-02-21T17:23:48;100000.65;;;5.80;100.00
34034;BME280;63481;52.588;22.472;2024-02-21T17:28:50;100001.73;;;5.80;100.00
34034;BME280;63481;52.588;22.472;2024-02-21T17:33:56;99996.17;;;5.82;100.00
34034;BME280;63481;52.588;22.472;2024-02-21T17:38:57;99990.28;;;5.81;100.00
34034;BME280;63481;52.588;22.472;2024-02-21T17:43:59;99987.15;;;5.83;100.00
34034;BME280;63481;52.588;22.472;2024-02-21T17:49:01;99987.43;;;5.83;100.00
34034;BME280;63481;52.588;22.472;2024-02-21T17:54:05;99985.88;;;5.79;100.00
34034;BME280;63481;52.588;22.472;2024-02-21T17:59:07;99985.72;;;5.78;100.00
34034;BME280;63481;52.588;22.472;2024-02-21T18:04:09;99984.94;;;5.80;100.00
34034;BME280;63481;52.588;22.472;2024-02-21T18:09:10;99980.81;;;5.80;100.00
34034;BME280;63481;52.588;22.472;2024-02-21T18:14:12;99976.71;;;5.80;100.00
34034;BME280;63481;52.588;22.472;2024-02-21T18:19:14;99966.07;;;5.82;100.00
34034;BME280;63481;52.588;22.472;2024-02-21T18:24:16;99964.13;;;5.80;100.00
34034;BME280;63481;52.588;22.472;2024-02-21T18:29:17;99959.59;;;5.79;100.00
34034;BME280;63481;52.588;22.472;2024-02-21T18:34:20;99954.23;;;5.81;100.00
34034;BME280;63481;52.588;22.472;2024-02-21T18:39:22;99950.67;;;5.85;100.00
34034;BME280;63481;52.588;22.472;2024-02-21T18:44:24;99945.74;;;5.84;100.00
34034;BME280;63481;52.588;22.472;2024-02-21T18:49:26;99935.89;;;5.82;100.00
34034;BME280;63481;52.588;22.472;2024-02-21T18:54:27;99936.00;;;5.83;100.00
34034;BME280;63481;52.588;22.472;2024-02-21T18:59:31;99934.48;;;5.82;100.00
34034;BME280;63481;52.588;22.472;2024-02-21T19:04:33;99934.55;;;5.83;100.00
34034;BME280;63481;52.588;22.472;2024-02-21T19:09:35;99933.56;;;5.81;100.00
34034;BME280;63481;52.588;22.472;2024-02-21T19:14:37;99932.64;;;5.84;100.00
34034;BME280;63481;52.588;22.472;2024-02-21T19:19:38;99926.16;;;5.84;100.00
34034;BME280;63481;52.588;22.472;2024-02-21T19:24:40;99922.57;;;5.83;100.00
34034;BME280;63481;52.588;22.472;2024-02-21T19:29:42;99922.53;;;5.83;100.00
34034;BME280;63481;52.588;22.472;2024-02-21T19:34:43;99928.91;;;5.84;100.00
34034;BME280;63481;52.588;22.472;2024-02-21T19:39:45;99928.36;;;5.83;100.00
34034;BME280;63481;52.588;22.472;2024-02-21T19:44:47;99924.10;;;5.82;100.00
34034;BME280;63481;52.588;22.472;2024-02-21T19:49:49;99924.55;;;5.83;100.00
34034;BME280;63481;52.588;22.472;2024-02-21T19:54:51;99927.64;;;5.82;100.00
34034;BME280;63481;52.588;22.472;2024-02-21T19:59:54;99926.29;;;5.81;100.00
34034;BME280;63481;52.588;22.472;2024-02-21T20:04:56;99925.48;;;5.79;100.00
34034;BME280;63481;52.588;22.472;2024-02-21T20:09:58;99923.70;;;5.79;100.00
34034;BME280;63481;52.588;22.472;2024-02-21T20:15:00;99921.23;;;5.79;100.00
34034;BME280;63481;52.588;22.472;2024-02-21T20:20:07;99914.58;;;5.78;100.00
34034;BME280;63481;52.588;22.472;2024-02-21T20:25:10;99909.72;;;5.78;100.00
34034;BME280;63481;52.588;22.472;2024-02-21T20:30:12;99913.11;;;5.79;100.00
34034;BME280;63481;52.588;22.472;2024-02-21T20:35:15;99911.73;;;5.80;100.00
34034;BME280;63481;52.588;22.472;2024-02-21T20:40:17;99907.66;;;5.83;100.00
34034;BME280;63481;52.588;22.472;2024-02-21T20:45:19;99900.88;;;5.86;100.00
34034;BME280;63481;52.588;22.472;2024-02-21T20:50:21;99899.56;;;5.86;100.00
34034;BME280;63481;52.588;22.472;2024-02-21T20:55:25;99894.94;;;5.85;100.00
34034;BME280;63481;52.588;22.472;2024-02-21T21:00:27;99886.49;;;5.85;100.00
34034;BME280;63481;52.588;22.472;2024-02-21T21:05:40;99888.77;;;5.87;100.00
34034;BME280;63481;52.588;22.472;2024-02-21T21:10:43;99891.61;;;5.89;100.00
34034;BME280;63481;52.588;22.472;2024-02-21T21:15:45;99887.96;;;5.86;100.00
34034;BME280;63481;52.588;22.472;2024-02-21T21:20:48;99886.20;;;5.89;100.00
34034;BME280;63481;52.588;22.472;2024-02-21T21:26:09;99886.02;;;5.92;100.00
34034;BME280;63481;52.588;22.472;2024-02-21T21:31:10;99886.15;;;5.92;100.00
34034;BME280;63481;52.588;22.472;2024-02-21T21:36:14;99875.83;;;5.93;100.00
34034;BME280;63481;52.588;22.472;2024-02-21T21:41:16;99873.13;;;5.92;100.00
34034;BME280;63481;52.588;22.472;2024-02-21T21:46:18;99870.25;;;5.94;100.00
34034;BME280;63481;52.588;22.472;2024-02-21T21:51:19;99868.94;;;5.96;100.00
34034;BME280;63481;52.588;22.472;2024-02-21T21:56:22;99860.92;;;5.96;100.00
34034;BME280;63481;52.588;22.472;2024-02-21T22:01:27;99860.14;;;5.96;100.00
34034;BME280;63481;52.588;22.472;2024-02-21T22:06:29;99856.65;;;5.94;100.00
34034;BME280;63481;52.588;22.472;2024-02-21T22:11:32;99853.11;;;5.97;100.00
34034;BME280;63481;52.588;22.472;2024-02-21T22:16:34;99845.59;;;5.98;100.00
34034;BME280;63481;52.588;22.472;2024-02-21T22:21:36;99841.43;;;5.97;100.00
34034;BME280;63481;52.588;22.472;2024-02-21T22:26:38;99835.90;;;5.98;100.00
34034;BME280;63481;52.588;22.472;2024-02-21T22:31:40;99827.36;;;6.00;100.00
34034;BME280;63481;52.588;22.472;2024-02-21T22:36:42;99828.17;;;6.04;100.00
34034;BME280;63481;52.588;22.472;2024-02-21T22:41:44;99826.38;;;5.99;100.00
34034;BME280;63481;52.588;22.472;2024-02-21T22:46:46;99821.33;;;6.03;100.00
34034;BME280;63481;52.588;22.472;2024-02-21T22:51:48;99817.39;;;6.03;100.00
34034;BME280;63481;52.588;22.472;2024-02-21T22:56:50;99812.51;;;6.05;100.00
34034;BME280;63481;52.588;22.472;2024-02-21T23:01:52;99798.80;;;5.98;100.00
34034;BME280;63481;52.588;22.472;2024-02-21T23:06:54;99790.80;;;5.93;100.00
34034;BME280;63481;52.588;22.472;2024-02-21T23:11:56;99780.45;;;5.95;100.00
34034;BME280;63481;52.588;22.472;2024-02-21T23:16:57;99780.50;;;5.96;100.00
34034;BME280;63481;52.588;22.472;2024-02-21T23:21:59;99779.86;;;5.97;100.00
34034;BME280;63481;52.588;22.472;2024-02-21T23:27:01;99780.09;;;5.97;100.00
34034;BME280;63481;52.588;22.472;2024-02-21T23:32:03;99778.72;;;5.97;100.00
34034;BME280;63481;52.588;22.472;2024-02-21T23:37:06;99773.64;;;6.02;100.00
34034;BME280;63481;52.588;22.472;2024-02-21T23:42:08;99769.48;;;6.13;100.00
34034;BME280;63481;52.588;22.472;2024-02-21T23:47:10;99763.26;;;6.15;100.00
34034;BME280;63481;52.588;22.472;2024-02-21T23:52:11;99754.90;;;6.05;100.00
34034;BME280;63481;52.588;22.472;2024-02-21T23:57:15;99755.41;;;6.13;100.00
